createdAt,value
2023-04-15T00:02:18.816Z,99.90
2023-04-15T00:04:51.276Z,99.90
2023-04-15T00:07:23.524Z,99.90
2023-04-15T00:09:58.007Z,99.90
2023-04-15T00:12:30.359Z,99.90
2023-04-15T00:15:02.607Z,99.90
2023-04-15T00:17:36.223Z,99.90
2023-04-15T00:20:10.454Z,99.90
2023-04-15T00:22:42.797Z,99.90
2023-04-15T00:25:15.514Z,99.90
2023-04-15T00:27:47.851Z,99.90
2023-04-15T00:30:20.605Z,99.90
2023-04-15T00:32:53.573Z,99.90
2023-04-15T00:35:26.609Z,99.90
2023-04-15T00:38:00.006Z,99.90
2023-04-15T00:40:32.259Z,99.90
2023-04-15T00:43:05.621Z,99.90
2023-04-15T00:45:38.352Z,99.90
2023-04-15T00:48:11.577Z,99.90
2023-04-15T00:50:44.103Z,99.90
2023-04-15T00:53:16.251Z,99.90
2023-04-15T00:55:48.595Z,99.90
2023-04-15T00:58:21.225Z,99.90
2023-04-15T01:00:56.236Z,99.90
2023-04-15T01:03:30.279Z,99.90
2023-04-15T01:06:04.228Z,99.90
2023-04-15T01:08:36.891Z,99.90
2023-04-15T01:11:10.800Z,99.90
2023-04-15T01:13:44.050Z,99.90
2023-04-15T01:16:17.581Z,99.90
2023-04-15T01:18:52.163Z,99.90
2023-04-15T01:21:24.323Z,99.90
2023-04-15T01:23:57.994Z,99.90
2023-04-15T01:26:30.794Z,99.90
2023-04-15T01:29:03.215Z,99.90
2023-04-15T01:31:59.473Z,99.90
2023-04-15T01:34:34.244Z,99.90
2023-04-15T01:37:07.771Z,99.90
2023-04-15T01:39:40.441Z,99.90
2023-04-15T01:42:12.579Z,99.90
2023-04-15T01:44:44.732Z,99.90
2023-04-15T01:47:17.090Z,99.90
2023-04-15T01:49:49.593Z,99.90
2023-04-15T01:52:21.777Z,99.90
2023-04-15T01:54:54.229Z,99.90
2023-04-15T01:57:26.578Z,99.90
2023-04-15T01:59:58.672Z,99.90
2023-04-15T02:02:31.024Z,99.90
2023-04-15T02:05:05.575Z,99.90
2023-04-15T02:07:38.005Z,99.90
2023-04-15T02:10:10.612Z,99.90
2023-04-15T02:12:44.504Z,99.90
2023-04-15T02:15:16.840Z,99.90
2023-04-15T02:17:51.140Z,99.90
2023-04-15T02:20:26.375Z,99.90
2023-04-15T02:22:58.688Z,99.90
2023-04-15T02:25:30.787Z,99.90
2023-04-15T02:28:02.812Z,99.90
2023-04-15T02:30:35.946Z,99.90
2023-04-15T02:33:08.169Z,99.90
2023-04-15T02:35:44.238Z,99.90
2023-04-15T02:38:18.042Z,99.90
2023-04-15T02:40:50.473Z,99.90
2023-04-15T02:43:22.750Z,99.90
2023-04-15T02:45:55.178Z,99.90
2023-04-15T02:48:27.511Z,99.90
2023-04-15T02:51:16.827Z,99.90
2023-04-15T02:53:51.713Z,99.90
2023-04-15T02:56:24.086Z,99.90
2023-04-15T02:58:56.810Z,99.90
2023-04-15T03:01:29.250Z,99.90
2023-04-15T03:04:01.342Z,99.90
2023-04-15T03:06:33.459Z,99.90
2023-04-15T03:09:06.158Z,99.90
2023-04-15T03:11:40.835Z,99.90
2023-04-15T03:14:12.976Z,99.90
2023-04-15T03:16:45.219Z,99.90
2023-04-15T03:19:17.253Z,99.90
2023-04-15T03:21:49.411Z,99.90
2023-04-15T03:24:21.675Z,99.90
2023-04-15T03:26:55.150Z,99.90
2023-04-15T03:29:27.652Z,99.90
2023-04-15T03:31:59.720Z,99.90
2023-04-15T03:34:32.133Z,99.90
2023-04-15T03:37:05.457Z,99.90
2023-04-15T03:39:37.595Z,99.90
2023-04-15T03:42:10.051Z,99.90
2023-04-15T03:44:42.259Z,99.90
2023-04-15T03:47:14.288Z,99.90
2023-04-15T03:49:46.928Z,99.90
2023-04-15T03:52:19.024Z,99.90
2023-04-15T03:54:51.591Z,99.90
2023-04-15T03:57:23.767Z,99.90
2023-04-15T03:59:55.777Z,99.90
2023-04-15T04:02:28.513Z,99.90
2023-04-15T04:05:00.940Z,99.90
2023-04-15T04:07:33.039Z,99.90
2023-04-15T04:10:05.538Z,99.90
2023-04-15T04:12:38.115Z,99.90
2023-04-15T04:15:10.618Z,99.90
2023-04-15T04:17:43.425Z,99.90
2023-04-15T04:20:16.148Z,99.90
2023-04-15T04:22:48.271Z,99.90
2023-04-15T04:25:20.522Z,99.90
2023-04-15T04:27:52.902Z,99.90
2023-04-15T04:30:25.053Z,99.90
2023-04-15T04:32:57.340Z,99.90
2023-04-15T04:35:29.485Z,99.90
2023-04-15T04:38:01.746Z,99.90
2023-04-15T04:40:34.689Z,99.90
2023-04-15T04:43:07.369Z,99.90
2023-04-15T04:45:40.266Z,99.90
2023-04-15T04:48:12.931Z,99.90
2023-04-15T04:50:45.559Z,99.90
2023-04-15T04:53:18.306Z,99.90
2023-04-15T04:55:50.384Z,99.90
2023-04-15T04:58:22.780Z,99.90
2023-04-15T05:00:55.103Z,99.90
2023-04-15T05:03:27.648Z,99.90
2023-04-15T05:05:59.946Z,99.90
2023-04-15T05:08:34.484Z,99.90
2023-04-15T05:11:07.414Z,99.90
2023-04-15T05:13:39.905Z,99.90
2023-04-15T05:16:12.463Z,99.90
2023-04-15T05:18:44.836Z,99.90
2023-04-15T05:21:17.355Z,99.90
2023-04-15T05:23:52.105Z,99.90
2023-04-15T05:26:24.401Z,99.90
2023-04-15T05:28:56.605Z,99.90
2023-04-15T05:31:28.918Z,99.90
2023-04-15T05:34:01.533Z,99.90
2023-04-15T05:36:34.371Z,99.90
2023-04-15T05:39:07.156Z,99.90
2023-04-15T05:41:39.865Z,99.90
2023-04-15T05:44:11.941Z,99.90
2023-04-15T05:46:44.166Z,99.90
2023-04-15T05:49:21.578Z,99.90
2023-04-15T05:51:53.704Z,99.90
2023-04-15T05:54:27.845Z,99.90
2023-04-15T05:56:59.834Z,99.90
2023-04-15T05:59:32.942Z,99.90
2023-04-15T06:02:09.804Z,99.90
2023-04-15T06:04:42.758Z,99.90
2023-04-15T06:07:15.543Z,99.90
2023-04-15T06:09:47.766Z,99.90
2023-04-15T06:12:31.785Z,99.90
2023-04-15T06:15:04.168Z,99.90
2023-04-15T06:17:38.073Z,99.90
2023-04-15T06:20:11.368Z,99.90
2023-04-15T06:22:43.823Z,99.90
2023-04-15T06:25:15.943Z,99.90
2023-04-15T06:27:48.396Z,99.90
2023-04-15T06:30:21.938Z,99.90
2023-04-15T06:32:55.761Z,99.90
2023-04-15T06:35:27.890Z,99.90
2023-04-15T06:37:59.874Z,99.90
2023-04-15T06:40:32.439Z,99.90
2023-04-15T06:43:04.988Z,99.90
2023-04-15T06:45:37.191Z,99.90
2023-04-15T06:48:09.388Z,99.90
2023-04-15T06:50:41.742Z,99.90
2023-04-15T06:53:14.010Z,99.90
2023-04-15T06:55:46.725Z,99.90
2023-04-15T06:58:18.767Z,99.90
2023-04-15T07:00:51.136Z,99.90
2023-04-15T07:03:23.654Z,99.90
2023-04-15T07:05:55.967Z,99.90
2023-04-15T07:08:28.032Z,99.90
2023-04-15T07:11:01.465Z,99.90
2023-04-15T07:13:33.542Z,99.90
2023-04-15T07:16:05.903Z,99.90
2023-04-15T07:18:38.283Z,99.90
2023-04-15T07:21:10.430Z,99.90
2023-04-15T07:23:42.585Z,99.90
2023-04-15T07:26:14.627Z,99.90
2023-04-15T07:28:47.432Z,99.90
2023-04-15T07:31:19.797Z,99.60
2023-04-15T07:33:52.100Z,99.90
2023-04-15T07:36:24.176Z,99.90
2023-04-15T07:38:56.286Z,99.90
2023-04-15T07:41:28.637Z,99.90
2023-04-15T07:44:01.077Z,99.90
2023-04-15T07:46:33.587Z,99.90
2023-04-15T07:49:06.155Z,99.90
2023-04-15T07:51:38.508Z,99.90
2023-04-15T07:54:10.617Z,99.90
2023-04-15T07:56:42.806Z,99.90
2023-04-15T07:59:18.037Z,99.90
2023-04-15T08:01:50.332Z,99.90
2023-04-15T08:04:22.649Z,99.90
2023-04-15T08:06:54.959Z,99.90
2023-04-15T08:09:27.210Z,99.90
2023-04-15T08:11:59.343Z,99.90
2023-04-15T08:14:31.922Z,99.90
2023-04-15T08:17:04.357Z,99.90
2023-04-15T08:19:36.908Z,99.90
2023-04-15T08:22:10.873Z,99.90
2023-04-15T08:24:50.031Z,98.70
2023-04-15T08:27:22.218Z,98.80
2023-04-15T08:29:54.656Z,98.20
2023-04-15T08:32:27.281Z,97.70
2023-04-15T08:35:00.727Z,97.40
2023-04-15T08:37:32.886Z,98.40
2023-04-15T08:40:05.695Z,99.90
2023-04-15T08:42:44.950Z,98.10
2023-04-15T08:45:20.605Z,98.30
2023-04-15T08:47:57.031Z,98.40
2023-04-15T08:50:31.737Z,98.20
2023-04-15T08:53:04.022Z,97.90
2023-04-15T08:55:39.986Z,99.40
2023-04-15T08:58:15.771Z,98.30
2023-04-15T09:00:48.759Z,99.10
2023-04-15T09:03:22.963Z,99.90
2023-04-15T09:05:57.419Z,99.90
2023-04-15T09:08:30.173Z,99.90
2023-04-15T09:11:06.617Z,99.90
2023-04-15T09:13:39.911Z,99.70
2023-04-15T09:16:12.028Z,98.70
2023-04-15T09:18:44.883Z,99.90
2023-04-15T09:21:35.580Z,99.90
2023-04-15T09:24:08.331Z,99.90
2023-04-15T09:26:40.656Z,99.90
2023-04-15T09:29:15.966Z,99.90
2023-04-15T09:31:49.545Z,99.90
2023-04-15T09:34:21.882Z,99.90
2023-04-15T09:37:07.790Z,99.90
2023-04-15T09:39:52.925Z,99.90
2023-04-15T09:42:25.207Z,98.60
2023-04-15T09:45:12.171Z,99.60
2023-04-15T09:47:44.392Z,99.70
2023-04-15T09:50:16.731Z,99.90
2023-04-15T09:52:50.330Z,98.80
2023-04-15T09:55:23.710Z,99.40
2023-04-15T09:57:56.035Z,99.90
2023-04-15T10:00:30.965Z,99.90
2023-04-15T10:03:06.053Z,99.90
2023-04-15T10:05:39.851Z,99.90
2023-04-15T10:08:13.445Z,99.90
2023-04-15T10:10:51.843Z,99.90
2023-04-15T10:13:26.049Z,99.90
2023-04-15T10:16:13.129Z,99.90
2023-04-15T10:18:58.540Z,99.90
2023-04-15T10:21:34.534Z,99.90
2023-04-15T10:24:09.095Z,99.90
2023-04-15T10:26:42.516Z,99.90
2023-04-15T10:29:15.737Z,99.90
2023-04-15T10:31:49.108Z,99.90
2023-04-15T10:34:24.468Z,99.90
2023-04-15T10:36:58.376Z,99.90
2023-04-15T10:39:34.200Z,99.90
2023-04-15T10:42:16.573Z,99.90
2023-04-15T10:44:54.733Z,99.90
2023-04-15T10:47:28.575Z,99.90
2023-04-15T10:50:03.636Z,99.90
2023-04-15T10:52:44.148Z,99.90
2023-04-15T10:55:24.615Z,99.90
2023-04-15T10:58:02.399Z,99.30
2023-04-15T11:00:37.644Z,99.70
2023-04-15T11:03:12.194Z,99.90
2023-04-15T11:05:54.383Z,99.90
2023-04-15T11:08:56.835Z,99.90
2023-04-15T11:12:05.663Z,99.90
2023-04-15T11:14:44.284Z,97.40
2023-04-15T11:17:28.850Z,97.90
2023-04-15T11:20:01.610Z,99.00
2023-04-15T11:22:37.351Z,99.20
2023-04-15T11:25:09.436Z,98.70
2023-04-15T11:27:41.560Z,98.10
2023-04-15T11:30:24.694Z,98.50
2023-04-15T11:33:05.283Z,97.50
2023-04-15T11:35:42.683Z,99.90
2023-04-15T11:38:16.765Z,99.20
2023-04-15T11:40:50.999Z,99.90
2023-04-15T11:43:23.892Z,99.90
2023-04-15T11:45:59.011Z,99.90
2023-04-15T11:48:35.357Z,99.90
2023-04-15T11:51:08.349Z,99.90
2023-04-15T11:53:52.174Z,99.90
2023-04-15T11:56:26.741Z,99.90
2023-04-15T11:59:00.276Z,99.90
2023-04-15T12:01:35.241Z,99.80
2023-04-15T12:04:25.581Z,99.30
2023-04-15T12:07:06.047Z,99.20
2023-04-15T12:09:39.916Z,99.90
2023-04-15T12:12:12.845Z,99.80
2023-04-15T12:14:46.438Z,97.70
2023-04-15T12:17:51.293Z,99.00
2023-04-15T12:20:28.490Z,99.00
2023-04-15T12:23:08.175Z,99.70
2023-04-15T12:25:41.710Z,99.90
2023-04-15T12:28:13.883Z,99.90
2023-04-15T12:30:54.480Z,99.90
2023-04-15T12:33:34.002Z,99.90
2023-04-15T12:36:06.603Z,99.90
2023-04-15T12:38:39.310Z,99.90
2023-04-15T12:41:12.148Z,99.90
2023-04-15T12:43:46.801Z,99.90
2023-04-15T12:46:20.639Z,99.90
2023-04-15T12:48:53.568Z,99.90
2023-04-15T12:51:27.796Z,99.90
2023-04-15T12:54:01.015Z,99.90
2023-04-15T12:56:36.744Z,99.90
2023-04-15T12:59:09.219Z,99.90
2023-04-15T13:01:42.482Z,99.90
2023-04-15T13:04:17.249Z,99.90
2023-04-15T13:06:50.711Z,99.90
2023-04-15T13:09:23.783Z,99.90
2023-04-15T13:11:56.611Z,99.90
2023-04-15T13:14:29.708Z,99.90
2023-04-15T13:17:06.071Z,99.90
2023-04-15T13:19:41.786Z,99.90
2023-04-15T13:22:15.439Z,99.90
2023-04-15T13:24:48.307Z,99.90
2023-04-15T13:27:21.573Z,99.90
2023-04-15T13:29:55.286Z,99.90
2023-04-15T13:32:28.489Z,99.90
2023-04-15T13:35:02.609Z,99.90
2023-04-15T13:37:36.614Z,99.90
2023-04-15T13:40:11.006Z,99.90
2023-04-15T13:42:43.881Z,99.90
2023-04-15T13:45:17.404Z,99.90
2023-04-15T13:47:50.583Z,99.90
2023-04-15T13:50:23.923Z,99.90
2023-04-15T13:52:56.383Z,99.90
2023-04-15T13:55:29.143Z,99.90
2023-04-15T13:58:02.144Z,99.90
2023-04-15T14:00:34.433Z,99.90
2023-04-15T14:03:07.156Z,99.90
2023-04-15T14:05:39.799Z,99.90
2023-04-15T14:08:12.688Z,99.90
2023-04-15T14:10:48.531Z,99.90
2023-04-15T14:13:21.364Z,99.90
2023-04-15T14:15:54.021Z,99.90
2023-04-15T14:18:27.943Z,99.90
2023-04-15T14:21:01.493Z,99.90
2023-04-15T14:23:34.121Z,99.90
2023-04-15T14:26:06.584Z,99.90
2023-04-15T14:28:39.533Z,99.90
2023-04-15T14:31:12.432Z,99.90
2023-04-15T14:33:45.454Z,99.90
2023-04-15T14:36:19.269Z,99.90
2023-04-15T14:38:52.162Z,99.90
2023-04-15T14:41:24.815Z,99.90
2023-04-15T14:43:57.485Z,99.90
2023-04-15T14:46:29.995Z,99.90
2023-04-15T14:49:03.806Z,99.90
2023-04-15T14:51:37.012Z,99.90
2023-04-15T14:54:09.652Z,99.90
2023-04-15T14:56:42.226Z,99.90
2023-04-15T14:59:14.722Z,99.90
2023-04-15T15:01:47.272Z,99.90
2023-04-15T15:04:20.157Z,99.90
2023-04-15T15:06:52.831Z,99.90
2023-04-15T15:09:25.650Z,99.90
2023-04-15T15:11:58.549Z,99.90
2023-04-15T15:14:33.184Z,99.90
2023-04-15T15:17:06.147Z,99.90
2023-04-15T15:19:40.193Z,99.90
2023-04-15T15:22:13.015Z,99.90
2023-04-15T15:24:45.777Z,99.90
2023-04-15T15:27:19.612Z,99.90
2023-04-15T15:29:52.570Z,99.90
2023-04-15T15:32:25.318Z,99.90
2023-04-15T15:34:57.723Z,99.90
2023-04-15T15:37:31.543Z,99.90
2023-04-15T15:40:08.305Z,99.90
2023-04-15T15:42:42.793Z,99.90
2023-04-15T15:45:15.443Z,99.90
2023-04-15T15:47:48.672Z,99.90
2023-04-15T15:50:21.448Z,99.90
2023-04-15T15:52:54.204Z,99.90
2023-04-15T15:55:27.450Z,99.90
2023-04-15T15:58:02.951Z,99.90
2023-04-15T16:00:35.772Z,99.90
2023-04-15T16:03:09.605Z,99.90
2023-04-15T16:05:42.239Z,99.90
2023-04-15T16:08:15.752Z,99.90
2023-04-15T16:10:48.561Z,99.90
2023-04-15T16:13:21.929Z,99.90
2023-04-15T16:15:54.482Z,99.90
2023-04-15T16:18:27.409Z,99.90
2023-04-15T16:21:00.033Z,99.90
2023-04-15T16:23:32.612Z,99.90
2023-04-15T16:26:08.683Z,99.90
2023-04-15T16:28:41.530Z,99.90
2023-04-15T16:31:14.442Z,99.90
2023-04-15T16:33:47.532Z,99.90
2023-04-15T16:36:20.413Z,99.90
2023-04-15T16:38:54.101Z,99.90
2023-04-15T16:41:29.585Z,99.90
2023-04-15T16:44:05.275Z,99.90
2023-04-15T16:46:41.007Z,99.90
2023-04-15T16:49:14.375Z,99.90
2023-04-15T16:51:47.192Z,99.90
2023-04-15T16:54:21.254Z,99.90
2023-04-15T16:56:59.038Z,99.90
2023-04-15T16:59:33.390Z,99.90
2023-04-15T17:02:06.460Z,99.90
2023-04-15T17:04:42.395Z,99.90
2023-04-15T17:07:15.081Z,99.90
2023-04-15T17:10:01.113Z,99.90
2023-04-15T17:12:33.732Z,99.90
2023-04-15T17:15:07.565Z,99.90
2023-04-15T17:17:41.199Z,99.90
2023-04-15T17:20:14.843Z,99.90
2023-04-15T17:22:49.538Z,99.90
2023-04-15T17:25:23.464Z,99.90
2023-04-15T17:27:56.437Z,99.90
2023-04-15T17:30:29.149Z,99.90
2023-04-15T17:33:58.000Z,99.90
2023-04-15T17:36:20.238Z,99.90
2023-04-15T17:38:56.853Z,99.90
2023-04-15T17:41:29.250Z,99.90
2023-04-15T17:44:02.013Z,99.90
2023-04-15T17:46:34.587Z,99.90
2023-04-15T17:49:09.177Z,99.90
2023-04-15T17:51:41.877Z,99.90
2023-04-15T17:54:16.199Z,99.90
2023-04-15T17:56:49.364Z,99.90
2023-04-15T17:59:22.110Z,99.90
2023-04-15T18:01:54.965Z,99.90
2023-04-15T18:04:29.579Z,99.90
2023-04-15T18:07:02.437Z,99.90
2023-04-15T18:09:37.008Z,99.90
2023-04-15T18:12:12.764Z,99.90
2023-04-15T18:14:45.797Z,99.90
2023-04-15T18:17:18.699Z,99.90
2023-04-15T18:19:52.625Z,99.90
2023-04-15T18:22:25.231Z,99.90
2023-04-15T18:25:04.254Z,99.90
2023-04-15T18:27:40.704Z,99.90
2023-04-15T18:30:13.901Z,99.90
2023-04-15T18:32:46.432Z,99.90
2023-04-15T18:35:19.013Z,99.90
2023-04-15T18:37:53.278Z,99.90
2023-04-15T18:40:25.694Z,99.90
2023-04-15T18:42:58.000Z,99.90
2023-04-15T18:45:31.294Z,99.90
2023-04-15T18:48:04.500Z,99.90
2023-04-15T18:50:36.939Z,99.90
2023-04-15T18:53:09.824Z,99.90
2023-04-15T18:55:42.324Z,99.90
2023-04-15T18:58:14.853Z,99.90
2023-04-15T19:00:47.821Z,99.90
2023-04-15T19:03:20.669Z,99.90
2023-04-15T19:05:53.199Z,99.90
2023-04-15T19:08:27.920Z,99.90
2023-04-15T19:11:02.834Z,99.90
2023-04-15T19:13:35.958Z,99.90
2023-04-15T19:16:08.835Z,99.90
2023-04-15T19:18:41.532Z,99.90
2023-04-15T19:21:15.000Z,99.90
2023-04-15T19:23:48.320Z,99.90
2023-04-15T19:26:21.356Z,99.90
2023-04-15T19:28:54.196Z,99.90
2023-04-15T19:31:46.575Z,99.90
2023-04-15T19:34:19.758Z,99.90
2023-04-15T19:36:52.693Z,99.90
2023-04-15T19:39:26.130Z,99.90
2023-04-15T19:42:01.712Z,99.90
2023-04-15T19:44:34.944Z,99.90
2023-04-15T19:47:10.208Z,99.90
2023-04-15T19:49:43.525Z,99.90
2023-04-15T19:52:16.432Z,99.90
2023-04-15T19:54:50.650Z,99.90
2023-04-15T19:57:23.836Z,99.90
2023-04-15T19:59:57.572Z,99.90
2023-04-15T20:02:30.689Z,99.90
2023-04-15T20:05:03.761Z,99.90
2023-04-15T20:07:42.813Z,99.90
2023-04-15T20:10:23.946Z,99.90
2023-04-15T20:12:56.898Z,99.90
2023-04-15T20:15:29.735Z,99.90
2023-04-15T20:18:02.617Z,99.90
2023-04-15T20:20:39.344Z,99.90
2023-04-15T20:23:12.010Z,99.90
2023-04-15T20:25:44.921Z,99.90
2023-04-15T20:28:19.477Z,99.90
2023-04-15T20:30:54.060Z,99.90
2023-04-15T20:33:27.555Z,99.90
2023-04-15T20:36:00.511Z,99.90
2023-04-15T20:38:32.936Z,99.90
2023-04-15T20:41:05.833Z,99.90
2023-04-15T20:43:38.746Z,99.90
2023-04-15T20:46:20.542Z,99.90
2023-04-15T20:48:54.165Z,99.90
2023-04-15T20:51:27.576Z,99.90
2023-04-15T20:54:07.275Z,99.90
2023-04-15T20:56:40.348Z,99.90
2023-04-15T20:59:13.336Z,99.90
2023-04-15T21:01:46.355Z,99.90
2023-04-15T21:04:19.400Z,99.90
2023-04-15T21:06:53.329Z,99.90
2023-04-15T21:09:45.528Z,99.90
2023-04-15T21:12:18.465Z,99.90
2023-04-15T21:14:51.439Z,99.90
2023-04-15T21:17:24.381Z,99.90
2023-04-15T21:19:57.302Z,99.90
2023-04-15T21:22:30.582Z,99.90
2023-04-15T21:25:03.341Z,99.90
2023-04-15T21:27:36.373Z,99.90
2023-04-15T21:30:09.818Z,99.90
2023-04-15T21:32:43.203Z,99.90
2023-04-15T21:35:15.752Z,99.90
2023-04-15T21:37:48.328Z,99.90
2023-04-15T21:40:21.206Z,99.90
2023-04-15T21:42:53.633Z,99.90
2023-04-15T21:45:26.586Z,99.90
2023-04-15T21:48:07.436Z,99.90
2023-04-15T21:50:41.419Z,99.90
2023-04-15T21:53:14.323Z,99.90
2023-04-15T21:55:47.655Z,99.90
2023-04-15T21:58:20.729Z,99.90
2023-04-15T22:00:57.562Z,99.90
2023-04-15T22:03:49.563Z,99.90
2023-04-15T22:06:22.250Z,99.90
2023-04-15T22:08:57.398Z,99.90
2023-04-15T22:11:39.640Z,99.90
2023-04-15T22:14:12.268Z,99.90
2023-04-15T22:16:44.901Z,99.90
2023-04-15T22:19:17.511Z,99.90
2023-04-15T22:21:53.180Z,99.90
2023-04-15T22:24:38.261Z,99.90
2023-04-15T22:27:12.910Z,99.90
2023-04-15T22:29:45.830Z,99.90
2023-04-15T22:32:18.085Z,99.90
2023-04-15T22:34:50.612Z,99.90
2023-04-15T22:37:24.209Z,99.90
2023-04-15T22:39:57.450Z,99.90
2023-04-15T22:42:30.184Z,99.90
2023-04-15T22:45:03.122Z,99.90
2023-04-15T22:47:36.201Z,99.90
2023-04-15T22:50:11.028Z,99.90
2023-04-15T22:52:46.403Z,99.90
2023-04-15T22:55:19.320Z,99.90
2023-04-15T22:57:52.847Z,99.90
2023-04-15T23:00:25.100Z,99.90
2023-04-15T23:02:57.801Z,99.90
2023-04-15T23:05:30.633Z,99.90
2023-04-15T23:08:03.398Z,99.90
2023-04-15T23:10:35.936Z,99.90
2023-04-15T23:13:11.379Z,99.90
2023-04-15T23:15:44.285Z,99.90
2023-04-15T23:18:17.555Z,99.90
2023-04-15T23:20:50.248Z,99.90
2023-04-15T23:23:23.409Z,99.90
2023-04-15T23:25:56.291Z,99.90
2023-04-15T23:28:28.533Z,99.90
2023-04-15T23:31:01.103Z,99.90
2023-04-15T23:33:33.561Z,99.90
2023-04-15T23:36:06.413Z,99.90
2023-04-15T23:38:38.661Z,99.90
2023-04-15T23:41:12.104Z,99.90
2023-04-15T23:43:44.403Z,99.90
2023-04-15T23:46:17.010Z,99.90
2023-04-15T23:48:49.742Z,99.90
2023-04-15T23:51:21.848Z,99.90
2023-04-15T23:53:53.832Z,99.90
2023-04-15T23:56:25.888Z,99.90
2023-04-15T23:58:58.010Z,99.90
